Donahue, Iowa
Current Conditions -  °F | °C
As of 9:52 AM on Thursday 30 Oct 2014 (Local Time) from KDVN Reporting Station
Overcast Overcast  
Wind Chill: 40°   Ceiling: 7500
Heat Index: 44°   Visibility: 10mi
Dew Point: 34°   Wind: 7mph
Humidity: 68%   Direction: 200°SSW
Pressure: 30.12"   Gusts: NA
Location:  41.69°N, 90.68°W
Report Text: KDVN 301452Z AUTO 20006KT 10SM OVC075 07/01 A3012 RMK AO2 SLP206 T00670011 53002 TSNO
Loading
Personal Weather Stations






























Interactive Weather Map
Tropical Storm Tracking
New forecast layout! Learn more

10-Day Weather Forecast

Advertisements
Track Severe Weather on mobile